Time;durP1;ratioP1;P1;durP2;ratioP2;P2;SDS_P1;SDS_P2;PMS_P1;PMS_P2;Temp;Humidity;BMP_temperature;BMP_pressure;BME280_temperature;BME280_humidity;BME280_pressure;Samples;Min_cycle;Max_cycle;Signal;HPM_P1;HPM_P2
2023/03/26 00:01:22;;;;;;;0.10;0.10;;;;;;;7.30;90.55;98376.50;4990968;28;20072;-69
2023/03/26 00:03:52;;;;;;;0.10;0.10;;;;;;;7.30;90.48;98372.97;5004624;28;20073;-73
2023/03/26 00:06:23;;;;;;;0.10;0.10;;;;;;;7.28;90.57;98372.44;5004656;28;20124;-69
2023/03/26 00:08:52;;;;;;;0.10;0.10;;;;;;;7.28;90.61;98380.59;5006071;28;20103;-69
2023/03/26 00:11:20;;;;;;;0.17;0.17;;;;;;;7.24;90.67;98372.22;5002189;28;20053;-74
2023/03/26 00:13:47;;;;;;;0.10;0.10;;;;;;;6.95;90.62;98326.84;5003122;28;20057;-73
2023/03/26 00:16:17;;;;;;;0.10;0.10;;;;;;;7.23;90.71;98370.59;5005463;28;20052;-68
2023/03/26 00:22:05;;;;;;;0.10;0.10;;;;;;;7.20;90.67;98366.56;4986497;28;20054;-69
2023/03/26 00:24:36;;;;;;;0.10;0.10;;;;;;;7.15;90.53;98366.59;4968550;28;20054;-68
2023/03/26 00:27:03;;;;;;;0.10;0.10;;;;;;;7.16;90.88;98361.97;4968792;28;20117;-69
2023/03/26 00:30:03;;;;;;;0.20;0.20;;;;;;;7.16;90.70;98365.50;4987072;28;20058;-68
2023/03/26 00:32:31;;;;;;;0.10;0.10;;;;;;;7.16;90.58;98373.66;4986813;28;20081;-69
2023/03/26 00:34:57;;;;;;;0.10;0.10;;;;;;;7.13;90.63;98368.78;4985576;28;20166;-69
2023/03/26 00:37:27;;;;;;;0.10;0.10;;;;;;;7.14;90.61;98375.84;4984880;28;20047;-69
2023/03/26 00:39:58;;;;;;;0.10;0.10;;;;;;;7.15;90.62;98382.91;4984376;28;20050;-69
2023/03/26 00:42:25;;;;;;;0.10;0.10;;;;;;;7.13;90.64;98378.88;4985510;28;20081;-69
2023/03/26 00:44:56;;;;;;;0.10;0.10;;;;;;;7.09;90.54;98382.13;4985308;28;20425;-69
2023/03/26 00:47:23;;;;;;;0.10;0.10;;;;;;;7.09;90.75;98371.25;4984067;28;20305;-69
2023/03/26 00:49:49;;;;;;;0.10;0.10;;;;;;;7.07;90.69;98373.47;4985481;28;20054;-68
2023/03/26 00:52:19;;;;;;;0.10;0.10;;;;;;;7.04;90.96;98360.44;4987472;28;20060;-68
2023/03/26 00:57:32;;;;;;;0.10;0.10;;;;;;;7.06;90.98;98352.81;5001227;28;20050;-73
2023/03/26 00:59:58;;;;;;;0.10;0.10;;;;;;;7.06;90.96;98349.31;4986666;28;20054;-73
2023/03/26 01:02:26;;;;;;;0.10;0.10;;;;;;;7.01;91.08;98342.00;4984615;28;20046;-73
2023/03/26 01:05:01;;;;;;;0.10;0.10;;;;;;;6.98;91.03;98345.31;4983283;28;20576;-73
2023/03/26 01:07:29;;;;;;;0.10;0.10;;;;;;;6.94;90.98;98342.34;4986390;28;20557;-73
2023/03/26 01:09:58;;;;;;;0.10;0.10;;;;;;;6.94;91.14;98342.34;4989332;28;20061;-73
2023/03/26 01:12:27;;;;;;;0.10;0.10;;;;;;;6.95;91.41;98338.53;4987930;28;20580;-72
2023/03/26 01:14:59;;;;;;;0.10;0.10;;;;;;;6.93;91.33;98329.03;4985698;28;20082;-74
2023/03/26 01:17:32;;;;;;;0.10;0.10;;;;;;;6.95;91.34;98330.38;4986753;28;20046;-74
2023/03/26 01:20:21;;;;;;;0.10;0.10;;;;;;;6.98;90.97;98341.75;4988689;28;20061;-72
2023/03/26 01:25:48;;;;;;;0.10;0.10;;;;;;;6.89;91.08;98349.72;5007274;28;20057;-73
2023/03/26 01:28:16;;;;;;;0.10;0.10;;;;;;;6.88;91.18;98343.50;5006866;28;20049;-73
2023/03/26 01:30:50;;;;;;;0.17;0.10;;;;;;;6.91;91.24;98344.81;5006211;28;20056;-74
2023/03/26 01:33:29;;;;;;;0.10;0.10;;;;;;;6.95;91.17;98345.88;5006264;28;20042;-73
2023/03/26 01:35:59;;;;;;;0.10;0.10;;;;;;;6.92;91.25;98328.22;5007967;28;20054;-73
2023/03/26 01:38:37;;;;;;;0.10;0.10;;;;;;;7.01;90.97;98330.31;5005970;28;20068;-74
2023/03/26 01:41:09;;;;;;;0.10;0.10;;;;;;;7.02;90.93;98329.22;4988912;28;20524;-73
2023/03/26 01:43:41;;;;;;;0.10;0.10;;;;;;;6.92;90.79;98308.38;5005490;28;20517;-73
2023/03/26 01:49:12;;;;;;;0.10;0.10;;;;;;;7.11;90.41;98332.13;5007353;28;20053;-73
2023/03/26 01:51:40;;;;;;;0.10;0.10;;;;;;;7.08;90.41;98331.59;5005366;28;20046;-73
2023/03/26 01:54:09;;;;;;;0.10;0.10;;;;;;;7.08;90.25;98326.16;5002468;28;20421;-73
2023/03/26 01:57:01;;;;;;;0.10;0.10;;;;;;;7.08;90.25;98320.72;4986727;28;20104;-73
2023/03/26 01:59:51;;;;;;;0.10;0.10;;;;;;;7.06;89.96;98316.69;4986519;28;20551;-73
2023/03/26 02:02:25;;;;;;;0.10;0.10;;;;;;;7.07;90.06;98321.03;4988585;28;20541;-74
2023/03/26 02:04:56;;;;;;;0.10;0.10;;;;;;;7.02;90.17;98311.00;4988804;28;20053;-73
2023/03/26 02:07:33;;;;;;;0.10;0.10;;;;;;;6.93;90.27;98313.53;4987193;28;20057;-72
2023/03/26 02:10:05;;;;;;;1.40;0.20;;;;;;;6.84;90.50;98303.59;4984613;28;20061;-73
2023/03/26 02:12:34;;;;;;;0.10;0.10;;;;;;;6.87;90.35;98308.44;4987016;28;20838;-72
2023/03/26 02:15:01;;;;;;;0.10;0.10;;;;;;;6.81;90.45;98300.34;4971131;28;20137;-73
2023/03/26 02:17:31;;;;;;;0.52;0.20;;;;;;;6.75;90.57;98293.34;4985203;28;20073;-73
2023/03/26 02:19:57;;;;;;;0.10;0.10;;;;;;;6.67;90.52;98299.41;4984596;28;20143;-73
2023/03/26 02:22:28;;;;;;;0.10;0.10;;;;;;;6.64;90.84;98300.78;4971327;28;20153;-73
2023/03/26 02:24:55;;;;;;;0.20;0.20;;;;;;;6.61;91.02;98301.34;4969749;28;20073;-73
2023/03/26 02:30:14;;;;;;;0.20;0.20;;;;;;;6.59;91.31;98316.31;4986356;28;20613;-73
2023/03/26 02:32:42;;;;;;;0.15;0.15;;;;;;;6.57;91.50;98305.75;4988191;28;20046;-72
2023/03/26 02:35:10;;;;;;;0.10;0.10;;;;;;;6.58;91.60;98310.06;4985611;28;20145;-73
2023/03/26 02:37:37;;;;;;;0.10;0.10;;;;;;;6.59;91.63;98303.53;4985188;28;20070;-73
2023/03/26 02:40:12;;;;;;;0.10;0.10;;;;;;;6.60;91.70;98294.28;4971771;28;20081;-72
2023/03/26 02:42:41;;;;;;;0.10;0.10;;;;;;;6.60;91.77;98291.59;4997196;28;20053;-73
2023/03/26 02:45:08;;;;;;;0.10;0.10;;;;;;;6.62;91.81;98292.09;4985728;28;20042;-73
2023/03/26 02:48:30;;;;;;;0.10;0.10;;;;;;;6.64;92.00;98297.25;4974755;28;20196;-73
2023/03/26 02:51:24;;;;;;;0.10;0.10;;;;;;;6.67;91.95;98293.97;5004750;28;20488;-73
2023/03/26 02:54:20;;;;;;;0.10;0.10;;;;;;;6.75;91.82;98292.53;5004431;28;20301;-73
2023/03/26 02:57:25;;;;;;;0.10;0.10;;;;;;;6.76;91.48;98291.44;4997500;28;20057;-73
2023/03/26 03:00:13;;;;;;;0.10;0.10;;;;;;;6.78;91.34;98287.31;4987555;28;20053;-73
2023/03/26 03:02:46;;;;;;;0.20;0.20;;;;;;;6.77;91.29;98285.69;4985799;28;20494;-72
2023/03/26 03:05:36;;;;;;;0.10;0.10;;;;;;;6.74;91.16;98288.22;4970962;28;20149;-72
2023/03/26 03:08:29;;;;;;;0.10;0.10;;;;;;;6.74;91.16;98289.00;4973947;28;20448;-72
2023/03/26 03:11:23;;;;;;;0.10;0.10;;;;;;;6.75;91.31;98281.69;5003655;28;20089;-73
2023/03/26 03:13:51;;;;;;;0.10;0.10;;;;;;;6.81;91.24;98280.50;5004307;28;20042;-72
2023/03/26 03:16:21;;;;;;;0.10;0.10;;;;;;;6.78;91.09;98265.59;5005536;28;20394;-72
2023/03/26 03:18:55;;;;;;;0.10;0.10;;;;;;;6.84;91.11;98277.22;4988819;28;20045;-73
2023/03/26 03:21:26;;;;;;;0.10;0.10;;;;;;;6.84;91.04;98276.41;5002273;28;20076;-73
2023/03/26 03:24:12;;;;;;;0.13;0.13;;;;;;;6.84;91.00;98274.50;5007294;28;20141;-72
2023/03/26 03:27:02;;;;;;;0.10;0.10;;;;;;;6.80;91.00;98262.59;4972624;28;20513;-73
2023/03/26 03:30:03;;;;;;;0.10;0.10;;;;;;;6.82;90.94;98268.53;5002191;28;20053;-72
2023/03/26 03:32:51;;;;;;;0.10;0.10;;;;;;;6.69;91.01;98244.78;5003743;28;20072;-73
2023/03/26 03:35:21;;;;;;;0.13;0.13;;;;;;;6.84;90.89;98263.63;5005078;28;20450;-73
2023/03/26 03:37:53;;;;;;;0.10;0.10;;;;;;;6.83;90.99;98258.50;5022032;28;20073;-73
2023/03/26 03:40:19;;;;;;;0.10;0.10;;;;;;;6.73;91.09;98241.19;4985213;28;20050;-73
2023/03/26 03:42:45;;;;;;;0.10;0.10;;;;;;;6.86;90.98;98236.19;4980797;28;20565;-73
2023/03/26 03:45:14;;;;;;;0.10;0.10;;;;;;;6.91;90.66;98234.22;4982632;28;20059;-72
2023/03/26 03:48:01;;;;;;;0.10;0.10;;;;;;;6.93;90.65;98226.59;4984032;28;20057;-73
2023/03/26 03:50:38;;;;;;;0.10;0.10;;;;;;;6.95;90.50;98234.47;4984932;28;20058;-72
2023/03/26 03:53:40;;;;;;;0.20;0.20;;;;;;;7.00;90.45;98236.28;5001096;28;20050;-74
2023/03/26 03:56:09;;;;;;;0.10;0.10;;;;;;;7.03;90.29;98230.31;5003708;28;20088;-73
2023/03/26 03:58:54;;;;;;;0.10;0.10;;;;;;;7.07;90.01;98236.78;5004534;28;20046;-74
2023/03/26 04:01:29;;;;;;;0.20;0.20;;;;;;;7.07;90.08;98229.41;4987817;28;20840;-74
2023/03/26 04:04:00;;;;;;;0.15;0.15;;;;;;;7.13;90.06;98229.38;4998420;28;20042;-74
2023/03/26 04:06:40;;;;;;;0.20;0.20;;;;;;;7.13;89.92;98232.88;4982932;28;20496;-73
2023/03/26 04:09:09;;;;;;;;;;;;;;;7.16;89.92;98235.00;4983908;28;20050;-73
2023/03/26 04:11:36;;;;;;;0.10;0.10;;;;;;;7.21;89.79;98226.81;4985233;28;19933;-72
2023/03/26 04:14:37;;;;;;;0.10;0.10;;;;;;;7.32;89.14;98224.78;4979283;28;20046;-73
2023/03/26 04:17:12;;;;;;;0.20;0.20;;;;;;;7.38;88.84;98223.59;4981538;28;20061;-72
2023/03/26 04:19:56;;;;;;;0.10;0.10;;;;;;;7.36;88.53;98206.75;5002478;28;20050;-73
2023/03/26 04:22:33;;;;;;;0.10;0.10;;;;;;;7.43;88.11;98217.28;5018928;28;20189;-72
2023/03/26 04:25:04;;;;;;;0.10;0.10;;;;;;;7.44;88.09;98224.34;4987196;28;20541;-72
2023/03/26 04:27:57;;;;;;;0.10;0.10;;;;;;;7.41;87.68;98213.22;5005460;28;20049;-72
2023/03/26 04:30:59;;;;;;;0.30;0.13;;;;;;;7.29;87.88;98216.38;5004007;28;20594;-72
2023/03/26 04:33:38;;;;;;;0.10;0.10;;;;;;;7.20;87.81;98203.44;5002903;28;20049;-72
2023/03/26 04:36:05;;;;;;;0.10;0.10;;;;;;;7.16;87.92;98194.25;4967307;28;20051;-73
2023/03/26 04:38:40;;;;;;;0.10;0.10;;;;;;;7.14;87.81;98192.94;4968206;28;20050;-73
2023/03/26 04:41:10;;;;;;;0.10;0.10;;;;;;;7.16;87.96;98199.69;4984273;28;20050;-72
2023/03/26 04:43:49;;;;;;;0.20;0.20;;;;;;;7.16;87.46;98202.41;4988224;28;20046;-73
2023/03/26 04:46:32;;;;;;;0.13;0.13;;;;;;;7.16;87.68;98198.88;5009506;28;20049;-73
2023/03/26 04:49:06;;;;;;;0.20;0.20;;;;;;;7.15;87.57;98200.00;4996759;28;20054;-73
2023/03/26 04:51:40;;;;;;;0.20;0.20;;;;;;;7.11;87.58;98194.31;5010876;28;20061;-73
2023/03/26 04:54:21;;;;;;;0.20;0.20;;;;;;;7.07;87.46;98196.78;4994247;28;20136;-72
2023/03/26 04:57:19;;;;;;;0.20;0.20;;;;;;;7.06;87.56;98188.94;4995198;28;20104;-73
2023/03/26 04:59:50;;;;;;;0.20;0.20;;;;;;;7.01;87.62;98180.84;4991614;28;20054;-72
2023/03/26 05:02:16;;;;;;;0.20;0.20;;;;;;;7.00;87.78;98187.38;4991123;28;20046;-68
2023/03/26 05:04:50;;;;;;;0.15;0.15;;;;;;;6.99;87.71;98177.63;5004703;28;20046;-68
2023/03/26 05:07:19;;;;;;;0.10;0.10;;;;;;;6.99;87.70;98183.88;4991752;28;20077;-68
2023/03/26 05:09:49;;;;;;;0.20;0.20;;;;;;;7.06;87.67;98181.59;4973766;28;20050;-72
2023/03/26 05:12:20;;;;;;;0.20;0.20;;;;;;;7.01;87.62;98175.41;4998242;28;20505;-68
2023/03/26 05:15:04;;;;;;;0.13;0.13;;;;;;;7.07;87.58;98183.22;4985268;28;20077;-68
2023/03/26 05:17:54;;;;;;;0.10;0.10;;;;;;;7.05;87.70;98174.53;4992235;28;21058;-69
2023/03/26 05:21:05;;;;;;;0.10;0.10;;;;;;;7.13;87.28;98181.22;4999315;28;20050;-68
2023/03/26 05:23:32;;;;;;;0.10;0.10;;;;;;;7.13;87.30;98175.00;5003154;28;20046;-67
2023/03/26 05:26:10;;;;;;;0.10;0.10;;;;;;;7.15;87.41;98159.22;4994943;28;20062;-68
2023/03/26 05:28:38;;;;;;;0.20;0.20;;;;;;;7.15;87.27;98168.16;4996665;28;20085;-69
2023/03/26 05:31:30;;;;;;;0.20;0.20;;;;;;;7.16;87.53;98164.34;5002569;28;20050;-67
2023/03/26 05:33:59;;;;;;;0.10;0.10;;;;;;;7.18;87.26;98170.31;5003437;28;20163;-68
2023/03/26 05:36:27;;;;;;;0.10;0.10;;;;;;;7.17;87.40;98168.66;5002041;28;20046;-68
2023/03/26 05:39:08;;;;;;;0.10;0.10;;;;;;;7.20;87.38;98164.56;4997717;28;20038;-68
2023/03/26 05:41:55;;;;;;;0.10;0.10;;;;;;;7.23;87.37;98164.81;4997301;28;20046;-68
2023/03/26 05:44:28;;;;;;;0.20;0.20;;;;;;;7.30;87.42;98164.44;5005609;28;20045;-68
2023/03/26 05:46:55;;;;;;;0.17;0.17;;;;;;;7.41;87.46;98159.66;5001396;28;20057;-68
2023/03/26 05:49:25;;;;;;;0.15;0.15;;;;;;;7.46;87.24;98159.56;5006033;28;20053;-68
2023/03/26 05:51:53;;;;;;;0.10;0.10;;;;;;;7.50;87.03;98165.25;4981868;28;20395;-68
2023/03/26 05:57:39;;;;;;;0.10;0.10;;;;;;;7.43;87.60;98157.44;4998793;28;20073;-68
2023/03/26 06:00:37;;;;;;;0.10;0.10;;;;;;;7.41;88.00;98154.22;4967981;28;20047;-68
2023/03/26 06:03:04;;;;;;;0.10;0.10;;;;;;;7.42;88.26;98144.16;5012814;28;20077;-68
2023/03/26 06:05:51;;;;;;;0.20;0.20;;;;;;;7.41;88.72;98148.78;4980538;28;20437;-68
2023/03/26 06:08:28;;;;;;;0.20;0.20;;;;;;;7.46;89.06;98139.75;4993656;28;20560;-68
2023/03/26 06:10:58;;;;;;;0.20;0.20;;;;;;;7.49;89.46;98139.16;4977346;28;20050;-68
2023/03/26 06:13:26;;;;;;;0.20;0.20;;;;;;;7.55;89.41;98137.97;4984387;28;20536;-68
2023/03/26 06:15:53;;;;;;;0.10;0.10;;;;;;;7.54;89.43;98130.91;4980946;28;20047;-68
2023/03/26 06:18:25;;;;;;;0.20;0.20;;;;;;;7.51;89.39;98128.78;5003742;28;20108;-68
2023/03/26 06:24:08;;;;;;;0.20;0.20;;;;;;;7.51;90.59;98126.06;4994823;28;20594;-68
2023/03/26 06:26:37;;;;;;;0.17;0.17;;;;;;;7.48;91.03;98121.22;4994725;28;20451;-68
2023/03/26 06:29:38;;;;;;;0.20;0.20;;;;;;;7.44;91.65;98112.06;4972297;28;20580;-68
2023/03/26 06:32:21;;;;;;;0.30;0.20;;;;;;;7.40;92.20;98114.53;4998253;28;20481;-68
2023/03/26 06:34:51;;;;;;;0.10;0.10;;;;;;;7.37;92.77;98106.97;4987035;28;20050;-68
2023/03/26 06:37:17;;;;;;;0.13;0.13;;;;;;;7.39;93.26;98112.94;4976537;28;20202;-68
2023/03/26 06:39:45;;;;;;;0.10;0.10;;;;;;;7.38;93.70;98101.22;4958701;28;20050;-68
2023/03/26 06:42:15;;;;;;;0.20;0.20;;;;;;;7.41;94.10;98104.47;4987578;28;20093;-68
2023/03/26 06:44:55;;;;;;;0.22;0.20;;;;;;;7.47;94.39;98104.09;4982582;28;20104;-68
2023/03/26 06:47:53;;;;;;;0.15;0.15;;;;;;;7.47;94.68;98089.69;4986214;28;20077;-68
2023/03/26 06:54:10;;;;;;;0.10;0.10;;;;;;;7.54;95.87;98087.38;4970251;28;20449;-68
2023/03/26 06:57:12;;;;;;;0.10;0.10;;;;;;;7.57;95.58;98086.00;4996817;28;20050;-69
2023/03/26 07:00:04;;;;;;;0.10;0.10;;;;;;;7.54;95.90;98087.38;5004819;28;20050;-68
2023/03/26 07:02:50;;;;;;;0.10;0.10;;;;;;;7.57;95.85;98078.66;5005588;28;20136;-68
2023/03/26 07:05:35;;;;;;;0.10;0.10;;;;;;;7.54;96.12;98083.88;5004296;28;20208;-68
2023/03/26 07:08:20;;;;;;;0.10;0.10;;;;;;;7.49;95.82;98071.16;5007664;28;20053;-68
2023/03/26 07:11:05;;;;;;;0.20;0.20;;;;;;;7.60;95.95;98066.38;4999174;28;20046;-68
2023/03/26 07:13:41;;;;;;;0.10;0.10;;;;;;;7.60;96.13;98060.91;5003454;28;20046;-71
2023/03/26 07:16:25;;;;;;;0.10;0.10;;;;;;;7.47;96.08;98063.28;4991036;28;20064;-71
2023/03/26 07:21:43;;;;;;;0.13;0.13;;;;;;;7.39;97.78;98066.69;5004181;28;20092;-71
2023/03/26 07:24:30;;;;;;;0.10;0.10;;;;;;;7.32;98.17;98052.66;4989867;28;20042;-71
2023/03/26 07:27:13;;;;;;;0.10;0.10;;;;;;;7.26;98.66;98051.97;5003617;28;20077;-71
2023/03/26 07:30:04;;;;;;;0.10;0.10;;;;;;;7.20;98.91;98051.22;5006072;28;20092;-71
2023/03/26 07:32:54;;;;;;;0.10;0.10;;;;;;;7.04;99.16;98034.31;5004267;28;20077;-71
2023/03/26 07:35:51;;;;;;;;;;;;;;;7.04;99.48;98039.75;4649209;28;10001146;-71
2023/03/26 07:38:44;;;;;;;0.10;0.10;;;;;;;6.99;99.79;98036.31;4985856;28;20071;-71
2023/03/26 07:41:36;;;;;;;0.20;0.20;;;;;;;6.95;100.00;98042.34;5016268;28;20898;-71
2023/03/26 07:44:49;;;;;;;0.10;0.10;;;;;;;6.86;99.96;98029.69;4985887;28;20149;-71
2023/03/26 07:47:24;;;;;;;0.10;0.10;;;;;;;6.89;99.91;98031.81;4996052;28;20136;-68
2023/03/26 07:50:14;;;;;;;0.10;0.10;;;;;;;6.89;100.00;98032.66;5001096;28;20092;-68
2023/03/26 07:53:00;;;;;;;0.10;0.10;;;;;;;6.93;100.00;98020.09;5000529;28;20148;-68
2023/03/26 07:56:11;;;;;;;0.10;0.10;;;;;;;6.99;100.00;98028.16;4979616;28;20340;-68
2023/03/26 07:58:58;;;;;;;0.20;0.20;;;;;;;7.05;100.00;98027.78;4993730;28;20076;-68
2023/03/26 08:01:47;;;;;;;0.10;0.10;;;;;;;7.04;100.00;98018.03;5003186;28;20571;-69
2023/03/26 08:04:48;;;;;;;0.10;0.10;;;;;;;7.06;100.00;98020.44;5002992;28;20053;-68
2023/03/26 08:07:56;;;;;;;0.20;0.20;;;;;;;7.08;100.00;98007.38;4995073;28;21929;-68
2023/03/26 08:10:34;;;;;;;;;;;;;;;7.18;100.00;98020.81;4985370;28;20057;-68
2023/03/26 08:13:15;;;;;;;0.10;0.10;;;;;;;7.09;100.00;98039.69;5019946;28;20435;-72
2023/03/26 08:15:48;;;;;;;0.10;0.10;;;;;;;6.91;100.00;98029.63;5004265;28;20112;-68
2023/03/26 08:18:53;;;;;;;0.20;0.20;;;;;;;6.84;100.00;98026.47;5003360;28;20046;-68
2023/03/26 08:21:25;;;;;;;0.10;0.10;;;;;;;6.83;100.00;98005.84;5002291;28;20066;-68
2023/03/26 08:24:17;;;;;;;0.20;0.10;;;;;;;6.89;100.00;98002.75;5001047;28;20069;-68
2023/03/26 08:27:08;;;;;;;0.20;0.20;;;;;;;6.97;100.00;97995.84;5003315;28;20052;-68
2023/03/26 08:29:58;;;;;;;0.10;0.10;;;;;;;6.98;100.00;98007.53;5005364;28;20580;-68
2023/03/26 08:32:25;;;;;;;0.10;0.10;;;;;;;6.93;100.00;98005.69;5001463;28;20044;-68
2023/03/26 08:34:51;;;;;;;0.10;0.10;;;;;;;6.90;100.00;98003.56;4977287;28;20054;-68
2023/03/26 08:37:17;;;;;;;0.10;0.10;;;;;;;6.90;100.00;97995.41;4983586;28;20287;-68
2023/03/26 08:39:43;;;;;;;0.10;0.10;;;;;;;6.91;100.00;97989.69;4998626;28;20057;-69
2023/03/26 08:42:39;;;;;;;0.10;0.10;;;;;;;6.88;100.00;97993.00;4996176;28;20050;-69
2023/03/26 08:45:28;;;;;;;0.10;0.10;;;;;;;6.76;100.00;97985.28;5000050;28;20051;-69
2023/03/26 08:48:21;;;;;;;0.10;0.10;;;;;;;6.64;100.00;97985.72;4995515;28;20777;-69
2023/03/26 08:51:26;;;;;;;0.22;0.20;;;;;;;6.52;100.00;97971.75;4988948;28;20066;-69
2023/03/26 08:54:27;;;;;;;0.10;0.10;;;;;;;6.65;100.00;97978.41;4982916;28;20049;-69
2023/03/26 08:57:24;;;;;;;0.10;0.10;;;;;;;6.61;100.00;97977.34;4979497;28;20066;-68
2023/03/26 09:00:34;;;;;;;0.13;0.13;;;;;;;6.51;100.00;97970.97;4966957;28;20085;-72
2023/03/26 09:03:32;;;;;;;0.20;0.20;;;;;;;6.44;100.00;97954.22;4940578;28;20494;-71
2023/03/26 09:06:32;;;;;;;0.10;0.10;;;;;;;6.52;100.00;97959.00;4998735;28;20068;-72
2023/03/26 09:09:34;;;;;;;0.20;0.20;;;;;;;6.61;100.00;97955.63;4994342;28;20062;-72
2023/03/26 09:12:28;;;;;;;0.10;0.10;;;;;;;6.63;100.00;97948.81;4970135;28;20057;-72
2023/03/26 09:15:26;;;;;;;0.10;0.10;;;;;;;6.57;100.00;97947.28;4972793;28;20062;-72
2023/03/26 09:18:35;;;;;;;0.10;0.10;;;;;;;6.52;100.00;97969.03;4983102;28;20043;-73
2023/03/26 09:21:32;;;;;;;0.10;0.10;;;;;;;6.41;100.00;97954.81;4959066;28;20074;-72
2023/03/26 09:24:19;;;;;;;;;;;;;;;6.45;100.00;97955.03;4986790;28;20053;-72
2023/03/26 09:27:07;;;;;;;0.10;0.10;;;;;;;6.38;100.00;97955.41;4990846;28;19984;-72
2023/03/26 09:30:42;;;;;;;0.30;0.20;;;;;;;6.30;100.00;97956.03;5014748;28;20052;-72
2023/03/26 09:33:20;;;;;;;;;;;;;;;6.38;100.00;97958.13;4913442;29;20051;-72
2023/03/26 09:35:54;;;;;;;0.10;0.10;;;;;;;6.39;100.00;97952.38;4988964;28;19936;-72
2023/03/26 09:38:43;;;;;;;0.10;0.10;;;;;;;6.45;100.00;97952.31;5007861;28;20080;-71
2023/03/26 09:41:15;;;;;;;0.10;0.10;;;;;;;6.39;100.00;97935.28;4977654;28;20141;-72
2023/03/26 09:43:58;;;;;;;0.10;0.10;;;;;;;6.55;100.00;97933.16;5006158;28;20050;-72
2023/03/26 09:46:30;;;;;;;0.20;0.20;;;;;;;6.65;100.00;97929.50;5005933;28;20136;-72
2023/03/26 09:49:36;;;;;;;0.10;0.10;;;;;;;6.76;100.00;97922.78;5008137;28;20610;-72
2023/03/26 09:52:57;;;;;;;0.10;0.10;;;;;;;6.81;100.00;97903.72;4996833;28;20038;-72
2023/03/26 09:55:58;;;;;;;0.10;0.10;;;;;;;6.75;100.00;97912.25;5004366;28;20049;-71
2023/03/26 09:58:49;;;;;;;0.10;0.10;;;;;;;6.73;100.00;97911.75;5001292;28;20489;-68
2023/03/26 10:01:24;;;;;;;0.10;0.10;;;;;;;6.70;100.00;97917.75;5006787;28;20049;-68
2023/03/26 10:04:04;;;;;;;0.10;0.10;;;;;;;6.61;100.00;97915.69;4988610;28;20050;-68
2023/03/26 10:06:47;;;;;;;0.20;0.20;;;;;;;6.67;100.00;97913.72;4986903;28;20052;-72
2023/03/26 10:09:27;;;;;;;0.10;0.10;;;;;;;6.69;100.00;97918.84;4979651;28;20161;-71
2023/03/26 10:12:08;;;;;;;0.10;0.10;;;;;;;6.73;100.00;97922.59;4646432;28;9999903;-71
2023/03/26 10:14:42;;;;;;;0.10;0.10;;;;;;;6.75;100.00;97918.47;4996300;28;20505;-71
2023/03/26 10:17:33;;;;;;;0.10;0.10;;;;;;;6.67;100.00;97906.38;4995939;28;20125;-68
2023/03/26 10:20:18;;;;;;;0.10;0.10;;;;;;;6.63;100.00;97918.94;5005141;28;20156;-67
2023/03/26 10:22:55;;;;;;;0.10;0.10;;;;;;;6.65;100.00;97913.22;5001679;28;20042;-68
2023/03/26 10:28:37;;;;;;;0.10;0.10;;;;;;;6.67;100.00;97906.38;4979587;28;20627;-67
2023/03/26 10:31:18;;;;;;;0.10;0.10;;;;;;;6.67;100.00;97898.22;4983235;28;20039;-67
2023/03/26 10:33:53;;;;;;;0.10;0.10;;;;;;;6.67;100.00;97900.94;4993967;28;20085;-68
2023/03/26 10:36:28;;;;;;;0.10;0.10;;;;;;;6.66;100.00;97906.69;5001543;28;20074;-67
2023/03/26 10:39:22;;;;;;;0.10;0.10;;;;;;;6.65;100.00;97894.19;4993125;28;20468;-67
2023/03/26 10:41:59;;;;;;;0.10;0.10;;;;;;;6.74;100.00;97897.06;4991406;28;20056;-67
2023/03/26 10:44:44;;;;;;;0.10;0.10;;;;;;;6.69;100.00;97891.69;4996423;28;20295;-68
2023/03/26 10:47:53;;;;;;;0.10;0.10;;;;;;;6.74;100.00;97894.34;4996766;28;20513;-69
2023/03/26 10:50:46;;;;;;;0.10;0.10;;;;;;;6.77;100.00;97888.31;4977150;28;20553;-69
2023/03/26 10:53:25;;;;;;;0.10;0.10;;;;;;;6.71;100.00;97884.03;5003010;28;20052;-68
2023/03/26 10:59:06;;;;;;;0.20;0.20;;;;;;;6.82;100.00;97885.50;5005175;28;20144;-66
2023/03/26 11:01:43;;;;;;;0.10;0.10;;;;;;;6.77;100.00;97867.38;5006242;28;20077;-67
2023/03/26 11:04:29;;;;;;;0.10;0.10;;;;;;;6.89;100.00;97876.97;5006409;28;20056;-67
2023/03/26 11:07:05;;;;;;;0.10;0.10;;;;;;;6.96;100.00;97871.97;5004465;28;20527;-67
2023/03/26 11:09:40;;;;;;;0.13;0.13;;;;;;;6.98;100.00;97883.34;5006104;28;20441;-66
2023/03/26 11:12:14;;;;;;;0.10;0.10;;;;;;;7.05;100.00;97878.31;5005165;28;20056;-66
2023/03/26 11:14:49;;;;;;;0.10;0.10;;;;;;;7.05;100.00;97881.03;5001973;28;20050;-66
2023/03/26 11:17:29;;;;;;;0.20;0.20;;;;;;;7.07;100.00;97878.03;5004252;28;20050;-66
2023/03/26 11:20:02;;;;;;;0.10;0.10;;;;;;;7.06;99.92;97874.50;4981639;28;20050;-65
2023/03/26 11:22:42;;;;;;;0.10;0.10;;;;;;;7.12;99.72;97872.50;4984113;28;20527;-65
2023/03/26 11:25:33;;;;;;;0.15;0.15;;;;;;;7.18;99.25;97879.47;4999434;28;20088;-66
2023/03/26 11:28:10;;;;;;;0.10;0.10;;;;;;;7.26;99.15;97877.16;4649483;28;10000464;-65
2023/03/26 11:30:47;;;;;;;0.10;0.10;;;;;;;7.28;98.34;97874.94;5000239;28;20079;-66
2023/03/26 11:33:19;;;;;;;0.10;0.10;;;;;;;7.28;97.34;97878.47;5002700;28;20050;-66
2023/03/26 11:35:49;;;;;;;0.10;0.10;;;;;;;7.26;97.30;97877.16;5007572;28;20111;-65
2023/03/26 11:38:20;;;;;;;0.10;0.10;;;;;;;7.29;97.20;97874.66;5004555;28;20050;-66
2023/03/26 11:40:51;;;;;;;0.10;0.10;;;;;;;7.32;96.44;97886.81;5004454;28;20052;-67
2023/03/26 11:43:32;;;;;;;0.10;0.10;;;;;;;7.29;96.36;97881.97;5001118;28;20099;-66
2023/03/26 11:46:02;;;;;;;0.10;0.10;;;;;;;7.29;96.28;97876.53;5003776;28;20575;-67
2023/03/26 11:48:32;;;;;;;0.10;0.10;;;;;;;7.22;95.98;97874.22;5005044;28;20517;-65
2023/03/26 11:51:04;;;;;;;0.10;0.10;;;;;;;7.19;95.90;97878.38;5000174;28;20049;-64
2023/03/26 11:53:37;;;;;;;0.10;0.10;;;;;;;7.22;95.74;97872.31;5002099;28;20049;-65
2023/03/26 11:56:13;;;;;;;0.10;0.10;;;;;;;7.19;95.46;97874.81;5000546;28;20038;-66
2023/03/26 11:58:45;;;;;;;0.10;0.10;;;;;;;7.25;95.92;97884.50;5001866;28;20236;-66
2023/03/26 12:01:16;;;;;;;0.10;0.10;;;;;;;7.24;95.42;97878.25;4999403;28;20164;-65
2023/03/26 12:03:42;;;;;;;0.10;0.10;;;;;;;7.26;95.74;97883.41;5003227;28;20436;-65
2023/03/26 12:06:24;;;;;;;0.10;0.10;;;;;;;7.29;95.57;97879.25;5002823;28;20367;-69
2023/03/26 12:08:50;;;;;;;0.10;0.10;;;;;;;7.29;95.33;97876.53;5003660;28;20057;-69
2023/03/26 12:11:21;;;;;;;0.10;0.10;;;;;;;7.23;95.54;97873.94;4997966;28;20314;-69
2023/03/26 12:13:52;;;;;;;0.10;0.10;;;;;;;7.27;95.59;97873.31;5001505;28;20522;-69
2023/03/26 12:16:20;;;;;;;0.10;0.10;;;;;;;7.26;95.63;97877.97;4986250;28;20049;-69
2023/03/26 12:18:58;;;;;;;0.10;0.10;;;;;;;7.19;95.95;97869.38;5001354;28;20038;-69
2023/03/26 12:21:25;;;;;;;0.10;0.10;;;;;;;7.20;96.22;97866.38;5000624;28;20060;-69
2023/03/26 12:23:58;;;;;;;0.10;0.10;;;;;;;7.27;96.19;97867.88;4990781;28;20046;-69
2023/03/26 12:26:40;;;;;;;0.10;0.10;;;;;;;7.24;96.09;97856.50;4994204;28;20063;-69
2023/03/26 12:29:10;;;;;;;0.20;0.20;;;;;;;7.24;96.25;97869.28;4998601;28;20046;-69
2023/03/26 12:31:50;;;;;;;0.10;0.10;;;;;;;7.24;96.04;97852.97;5001111;28;20196;-68
2023/03/26 12:34:18;;;;;;;0.10;0.10;;;;;;;7.21;96.10;97848.16;4998322;28;20042;-69
2023/03/26 12:36:50;;;;;;;0.10;0.10;;;;;;;7.18;96.21;97843.31;5001380;28;20054;-69
2023/03/26 12:39:37;;;;;;;0.10;0.10;;;;;;;7.20;96.26;97841.91;4999598;28;20151;-70
2023/03/26 12:42:06;;;;;;;0.10;0.10;;;;;;;7.18;96.41;97849.56;4996914;28;20077;-69
2023/03/26 12:44:35;;;;;;;0.10;0.10;;;;;;;7.20;96.19;97846.53;5003103;28;20140;-69
2023/03/26 12:47:18;;;;;;;0.10;0.10;;;;;;;7.21;96.20;97840.00;5002471;28;20046;-68
2023/03/26 12:49:46;;;;;;;0.10;0.10;;;;;;;7.20;96.20;97833.75;5001548;28;20232;-68
2023/03/26 12:52:38;;;;;;;0.10;0.10;;;;;;;7.22;96.01;97842.41;5000394;28;20042;-68
2023/03/26 12:55:19;;;;;;;0.10;0.10;;;;;;;7.19;96.12;97842.22;4996766;28;20116;-68
2023/03/26 12:57:56;;;;;;;0.13;0.13;;;;;;;7.23;96.25;97835.06;4985635;28;20060;-68
2023/03/26 13:00:44;;;;;;;0.10;0.10;;;;;;;7.24;95.95;97855.69;4996137;28;20050;-68
2023/03/26 13:03:28;;;;;;;0.20;0.20;;;;;;;7.19;96.11;97840.31;5002595;28;20038;-69
2023/03/26 13:06:21;;;;;;;0.10;0.10;;;;;;;7.16;96.36;97846.31;5000606;28;20531;-68
2023/03/26 13:09:21;;;;;;;0.10;0.10;;;;;;;7.17;96.47;97841.72;5006599;28;20046;-69
2023/03/26 13:11:59;;;;;;;0.10;0.10;;;;;;;7.16;96.23;97834.66;4958274;28;20477;-69
2023/03/26 13:14:47;;;;;;;0.10;0.10;;;;;;;7.13;95.98;97832.53;5004113;28;20504;-69